Time;durP1;ratioP1;P1;durP2;ratioP2;P2;SDS_P1;SDS_P2;PMS_P1;PMS_P2;Temp;Humidity;BMP_temperature;BMP_pressure;BME280_temperature;BME280_humidity;BME280_pressure;Samples;Min_cycle;Max_cycle;Signal;HPM_P1;HPM_P2
2021/04/02 00:01:36;;;;;;;7.30;5.33;;;8.50;99.90;;;;;;5109332;28;20460;-82
2021/04/02 00:04:01;;;;;;;7.00;5.47;;;8.70;99.90;;;;;;5087589;28;20422;-83
2021/04/02 00:06:27;;;;;;;8.53;5.67;;;8.40;99.90;;;;;;5076673;28;20817;-82
2021/04/02 00:08:53;;;;;;;6.90;5.73;;;8.40;99.90;;;;;;5112464;28;20182;-83
2021/04/02 00:11:19;;;;;;;6.70;5.47;;;8.30;99.90;;;;;;5094426;28;20218;-82
2021/04/02 00:13:47;;;;;;;5.80;5.00;;;8.10;99.90;;;;;;5112376;28;20342;-82
2021/04/02 00:16:15;;;;;;;8.13;5.13;;;8.30;99.90;;;;;;5106372;28;20262;-83
2021/04/02 00:18:41;;;;;;;9.73;5.97;;;8.20;99.90;;;;;;5075327;28;20486;-83
2021/04/02 00:21:09;;;;;;;6.80;4.97;;;8.10;99.90;;;;;;5075058;28;20438;-82
2021/04/02 00:23:36;;;;;;;6.30;5.40;;;8.30;99.90;;;;;;5091705;28;20433;-83
2021/04/02 00:26:05;;;;;;;6.70;5.80;;;8.10;99.90;;;;;;5111592;28;20417;-82
2021/04/02 00:28:30;;;;;;;8.00;5.53;;;8.10;99.90;;;;;;5112223;28;20540;-82
2021/04/02 00:30:57;;;;;;;8.00;5.80;;;8.10;99.90;;;;;;5080222;27;21855;-82
2021/04/02 00:33:29;;;;;;;8.70;6.07;;;8.20;99.90;;;;;;5097292;28;20226;-82
2021/04/02 00:35:55;;;;;;;7.63;5.53;;;7.90;99.90;;;;;;5094595;28;20430;-82
2021/04/02 00:38:21;;;;;;;7.77;5.27;;;7.90;99.90;;;;;;5111113;28;20555;-82
2021/04/02 00:41:01;;;;;;;9.60;6.20;;;8.10;99.90;;;;;;5111754;28;20621;-82
2021/04/02 00:43:30;;;;;;;6.10;5.50;;;8.10;99.90;;;;;;5112469;28;20179;-82
2021/04/02 00:45:56;;;;;;;7.33;5.87;;;8.10;99.90;;;;;;5092088;28;20461;-83
2021/04/02 00:48:22;;;;;;;8.03;5.70;;;8.10;99.90;;;;;;5106223;28;20421;-82
2021/04/02 00:50:52;;;;;;;6.33;5.47;;;8.20;99.90;;;;;;5098050;28;20458;-82
2021/04/02 00:53:19;;;;;;;7.70;5.97;;;8.40;99.90;;;;;;5095652;28;20470;-82
2021/04/02 00:55:46;;;;;;;8.10;5.60;;;8.20;99.90;;;;;;5099675;28;20404;-82
2021/04/02 00:58:15;;;;;;;8.47;6.17;;;8.30;99.90;;;;;;5058008;28;20837;-82
2021/04/02 01:00:41;;;;;;;6.50;5.30;;;8.20;99.90;;;;;;5076091;28;20430;-83
2021/04/02 01:03:07;;;;;;;6.43;5.80;;;8.20;99.90;;;;;;5089404;28;20442;-82
2021/04/02 01:05:39;;;;;;;7.00;5.80;;;8.30;99.90;;;;;;5062030;28;20793;-82
2021/04/02 01:08:10;;;;;;;7.87;5.87;;;8.20;99.90;;;;;;5111804;28;20428;-83
2021/04/02 01:10:38;;;;;;;7.17;6.07;;;8.40;99.90;;;;;;5111470;28;20460;-82
2021/04/02 01:13:10;;;;;;;7.77;5.63;;;8.30;99.90;;;;;;5093073;28;20447;-82
2021/04/02 01:15:43;;;;;;;11.00;6.57;;;8.40;99.90;;;;;;5109171;28;20475;-83
2021/04/02 01:18:27;;;;;;;7.83;5.50;;;8.50;99.90;;;;;;5090998;28;20426;-82
2021/04/02 01:20:57;;;;;;;7.43;5.53;;;8.60;99.90;;;;;;5111472;28;20508;-83
2021/04/02 01:23:29;;;;;;;6.00;5.10;;;8.30;99.90;;;;;;5101434;28;20437;-82
2021/04/02 01:26:18;;;;;;;10.00;5.80;;;8.30;99.90;;;;;;5080973;28;20428;-82
2021/04/02 01:29:02;;;;;;;8.27;6.00;;;8.30;99.90;;;;;;5096841;28;20472;-82
2021/04/02 01:31:28;;;;;;;7.20;5.70;;;8.50;99.90;;;;;;5104828;28;20461;-82
2021/04/02 01:33:56;;;;;;;9.80;5.40;;;8.30;99.90;;;;;;5098832;28;20437;-82
2021/04/02 01:36:24;;;;;;;8.93;5.30;;;8.10;99.90;;;;;;5097896;28;21105;-81
2021/04/02 01:38:52;;;;;;;8.67;5.97;;;8.10;99.90;;;;;;5114885;28;20418;-82
2021/04/02 01:41:21;;;;;;;6.87;5.60;;;8.10;99.90;;;;;;5114965;28;20413;-82
2021/04/02 01:43:52;;;;;;;7.03;5.60;;;8.10;99.90;;;;;;5097733;28;20425;-82
2021/04/02 01:46:20;;;;;;;8.50;5.70;;;8.20;99.90;;;;;;5108530;28;20460;-82
2021/04/02 01:48:51;;;;;;;6.73;6.03;;;8.20;99.90;;;;;;5115416;27;20432;-82
2021/04/02 01:51:17;;;;;;;7.07;5.30;;;8.10;99.90;;;;;;5094300;28;20462;-82
2021/04/02 01:53:47;;;;;;;9.13;6.23;;;7.60;99.90;;;;;;5113593;28;20409;-82
2021/04/02 01:56:14;;;;;;;6.50;5.90;;;7.50;99.90;;;;;;5106765;28;20421;-82
2021/04/02 01:58:42;;;;;;;9.70;5.90;;;7.80;99.90;;;;;;5096801;28;20417;-82
2021/04/02 02:01:09;;;;;;;10.00;5.67;;;7.70;99.90;;;;;;5097139;28;20483;-83
2021/04/02 02:03:35;;;;;;;9.30;6.07;;;7.70;99.90;;;;;;5093089;28;20426;-83
2021/04/02 02:06:03;;;;;;;12.60;5.90;;;7.40;99.90;;;;;;5089735;28;20413;-82
2021/04/02 02:08:30;;;;;;;8.17;5.90;;;7.80;99.90;;;;;;5077953;28;20429;-82
2021/04/02 02:11:17;;;;;;;6.40;5.53;;;7.90;99.90;;;;;;5111934;28;20445;-83
2021/04/02 02:14:04;;;;;;;8.07;6.50;;;7.70;99.90;;;;;;5099726;28;20406;-82
2021/04/02 02:16:31;;;;;;;9.87;5.87;;;7.60;99.90;;;;;;5096194;28;20441;-82
2021/04/02 02:18:59;;;;;;;6.87;6.00;;;7.40;99.90;;;;;;5100470;28;20437;-83
2021/04/02 02:21:26;;;;;;;9.13;5.90;;;7.70;99.90;;;;;;5114598;28;20439;-82
2021/04/02 02:23:54;;;;;;;6.63;5.33;;;7.40;99.90;;;;;;5094554;28;20855;-82
2021/04/02 02:26:20;;;;;;;10.13;6.33;;;7.30;99.90;;;;;;5091432;28;20446;-82
2021/04/02 02:28:46;;;;;;;9.50;6.30;;;7.20;99.90;;;;;;5089696;28;20447;-82
2021/04/02 02:31:12;;;;;;;9.37;6.50;;;7.40;99.90;;;;;;5094484;28;20861;-82
2021/04/02 02:33:39;;;;;;;7.97;6.70;;;7.60;99.90;;;;;;5107854;28;20426;-82
2021/04/02 02:36:06;;;;;;;7.97;6.07;;;7.40;99.90;;;;;;5113803;28;20421;-82
2021/04/02 02:38:32;;;;;;;12.67;6.13;;;7.60;99.90;;;;;;5093871;28;20429;-82
2021/04/02 02:40:58;;;;;;;7.67;6.47;;;7.50;99.90;;;;;;5079634;28;20425;-83
2021/04/02 02:43:25;;;;;;;8.80;6.50;;;7.40;99.90;;;;;;5060533;28;20442;-82
2021/04/02 02:45:51;;;;;;;7.97;6.40;;;7.50;99.90;;;;;;5092678;28;20794;-82
2021/04/02 02:48:16;;;;;;;8.03;6.83;;;7.80;99.90;;;;;;5095641;27;20432;-82
2021/04/02 02:50:52;;;;;;;10.07;6.60;;;7.90;99.90;;;;;;5080115;28;20207;-83
2021/04/02 02:53:21;;;;;;;8.57;6.47;;;7.80;99.90;;;;;;5096921;28;20203;-82
2021/04/02 02:55:48;;;;;;;9.50;6.10;;;7.80;99.90;;;;;;5106846;28;20425;-82
2021/04/02 02:58:16;;;;;;;9.73;7.37;;;7.60;99.90;;;;;;5097050;28;20417;-81
2021/04/02 03:00:44;;;;;;;11.50;6.70;;;7.60;99.90;;;;;;5076309;28;20951;-83
2021/04/02 03:03:15;;;;;;;10.20;6.50;;;7.80;99.90;;;;;;5096489;28;20481;-82
2021/04/02 03:05:47;;;;;;;13.83;7.20;;;7.60;99.90;;;;;;5096791;28;20421;-83
2021/04/02 03:08:17;;;;;;;7.90;6.40;;;7.80;99.90;;;;;;5113891;28;20443;-82
2021/04/02 03:10:43;;;;;;;8.87;6.37;;;7.80;99.90;;;;;;5112914;28;20461;-81
2021/04/02 03:13:11;;;;;;;20.47;7.40;;;8.00;99.90;;;;;;5112879;28;20445;-82
2021/04/02 03:15:37;;;;;;;7.67;6.27;;;8.10;99.90;;;;;;5102764;28;20419;-82
2021/04/02 03:18:06;;;;;;;9.80;7.17;;;7.90;99.90;;;;;;5103643;28;20440;-82
2021/04/02 03:20:36;;;;;;;11.80;7.80;;;8.00;99.90;;;;;;5076052;27;20183;-83
2021/04/02 03:23:05;;;;;;;9.67;7.93;;;7.90;99.90;;;;;;5095451;28;20445;-82
2021/04/02 03:25:33;;;;;;;12.97;8.10;;;7.80;99.90;;;;;;5114303;28;20674;-82
2021/04/02 03:28:00;;;;;;;10.97;7.77;;;7.70;99.90;;;;;;5112506;28;20422;-82
2021/04/02 03:30:28;;;;;;;8.50;7.60;;;7.80;99.90;;;;;;5096366;28;20460;-81
2021/04/02 03:33:18;;;;;;;13.47;8.33;;;7.80;99.90;;;;;;5105547;28;20507;-83
2021/04/02 03:35:46;;;;;;;8.80;7.87;;;7.90;99.90;;;;;;5127750;27;20410;-82
2021/04/02 03:38:15;;;;;;;13.73;7.90;;;7.90;99.90;;;;;;5113086;28;20466;-82
2021/04/02 03:40:44;;;;;;;10.63;7.20;;;7.70;99.90;;;;;;5102735;27;20422;-83
2021/04/02 03:43:11;;;;;;;12.67;8.30;;;7.60;99.90;;;;;;5111760;28;20437;-82
2021/04/02 03:45:39;;;;;;;10.40;7.73;;;7.70;99.90;;;;;;5113032;28;20418;-82
2021/04/02 03:48:07;;;;;;;9.80;7.13;;;7.40;99.90;;;;;;5089036;28;20425;-82
2021/04/02 03:50:36;;;;;;;13.57;8.33;;;7.70;99.90;;;;;;5092584;28;20880;-82
2021/04/02 03:53:04;;;;;;;12.40;8.47;;;7.80;99.90;;;;;;5098352;28;20452;-82
2021/04/02 03:55:31;;;;;;;8.80;7.90;;;8.10;99.90;;;;;;5094948;28;20419;-82
2021/04/02 03:57:59;;;;;;;11.17;7.80;;;7.80;99.90;;;;;;5075687;28;20434;-82
2021/04/02 04:00:29;;;;;;;13.23;8.70;;;7.70;99.90;;;;;;5076662;28;20418;-83
2021/04/02 04:02:56;;;;;;;8.60;7.70;;;8.00;99.90;;;;;;5099332;27;20454;-82
2021/04/02 04:05:24;;;;;;;9.60;7.67;;;7.60;99.90;;;;;;5105553;28;20423;-81
2021/04/02 04:07:51;;;;;;;10.00;7.53;;;7.70;99.90;;;;;;5115500;27;20456;-82
2021/04/02 04:10:19;;;;;;;10.63;7.80;;;7.60;99.90;;;;;;5112329;28;20476;-82
2021/04/02 04:12:49;;;;;;;11.93;8.07;;;7.40;99.90;;;;;;5084923;28;20430;-83
2021/04/02 04:15:16;;;;;;;12.73;8.67;;;7.40;99.90;;;;;;5093078;28;20418;-82
2021/04/02 04:17:45;;;;;;;14.20;8.60;;;7.40;99.90;;;;;;5096515;28;20524;-81
2021/04/02 04:20:12;;;;;;;11.30;9.10;;;7.50;99.90;;;;;;5081523;27;20416;-82
2021/04/02 04:22:42;;;;;;;13.27;9.53;;;7.50;99.90;;;;;;5080018;28;20441;-82
2021/04/02 04:25:09;;;;;;;14.97;9.53;;;7.30;99.90;;;;;;5095654;28;20432;-82
2021/04/02 04:27:38;;;;;;;13.73;9.27;;;7.20;99.90;;;;;;5078575;28;20425;-83
2021/04/02 04:30:08;;;;;;;11.87;8.97;;;7.40;99.90;;;;;;5094600;28;20477;-82
2021/04/02 04:32:34;;;;;;;15.50;8.90;;;7.30;99.90;;;;;;5092325;28;20456;-81
2021/04/02 04:35:00;;;;;;;10.23;9.23;;;7.40;99.90;;;;;;5094145;28;20437;-82
2021/04/02 04:37:28;;;;;;;12.70;9.40;;;7.30;99.90;;;;;;5093971;28;20487;-82
2021/04/02 04:39:55;;;;;;;13.10;9.40;;;7.40;99.90;;;;;;5075199;28;20423;-82
2021/04/02 04:42:23;;;;;;;15.27;10.23;;;7.40;99.90;;;;;;5108972;28;20430;-82
2021/04/02 04:44:52;;;;;;;14.33;9.17;;;7.60;99.90;;;;;;5077930;28;20425;-81
2021/04/02 04:47:17;;;;;;;11.13;8.23;;;7.30;99.90;;;;;;5077145;28;20458;-82
2021/04/02 04:49:44;;;;;;;12.53;9.13;;;7.30;99.90;;;;;;5072785;28;20464;-82
2021/04/02 04:52:14;;;;;;;14.03;9.40;;;7.20;99.90;;;;;;5111033;28;20348;-82
2021/04/02 04:54:42;;;;;;;15.30;10.60;;;7.20;99.90;;;;;;5090745;28;20762;-81
2021/04/02 04:57:09;;;;;;;12.93;8.20;;;7.30;99.90;;;;;;5112138;28;20495;-82
2021/04/02 04:59:38;;;;;;;11.50;9.20;;;7.20;99.90;;;;;;5095340;28;20536;-82
2021/04/02 05:02:05;;;;;;;13.57;8.47;;;7.30;99.90;;;;;;5094591;28;20445;-83
2021/04/02 05:04:31;;;;;;;14.90;7.93;;;7.20;99.90;;;;;;5074140;28;20418;-82
2021/04/02 05:07:00;;;;;;;12.97;8.70;;;7.40;99.90;;;;;;5074697;28;20506;-82
2021/04/02 05:09:28;;;;;;;11.97;9.13;;;7.30;99.90;;;;;;5078050;28;20534;-82
2021/04/02 05:11:57;;;;;;;11.93;8.00;;;7.20;99.90;;;;;;5077991;28;20993;-83
2021/04/02 05:14:24;;;;;;;11.77;8.27;;;7.30;99.90;;;;;;5094785;28;20791;-83
2021/04/02 05:16:51;;;;;;;14.33;9.13;;;7.10;99.90;;;;;;5094091;28;20414;-82
2021/04/02 05:19:18;;;;;;;10.43;8.60;;;7.20;99.90;;;;;;5091625;28;20434;-82
2021/04/02 05:21:45;;;;;;;13.40;9.00;;;6.90;99.90;;;;;;5094847;28;20939;-82
2021/04/02 05:24:11;;;;;;;13.40;8.83;;;6.80;99.90;;;;;;5094624;28;20508;-82
2021/04/02 05:26:38;;;;;;;16.37;9.10;;;6.90;99.90;;;;;;5094882;28;20432;-82
2021/04/02 05:29:04;;;;;;;12.57;9.87;;;7.00;99.90;;;;;;5094473;28;20449;-82
2021/04/02 05:31:31;;;;;;;13.30;9.00;;;6.80;99.90;;;;;;5094310;28;20469;-82
2021/04/02 05:33:57;;;;;;;10.83;8.97;;;7.20;99.90;;;;;;5108055;28;20426;-81
2021/04/02 05:36:23;;;;;;;11.60;8.13;;;7.10;99.90;;;;;;5110378;28;20422;-83
2021/04/02 05:38:49;;;;;;;13.33;8.80;;;6.90;99.90;;;;;;5111518;28;20818;-82
2021/04/02 05:41:19;;;;;;;12.23;9.30;;;7.30;99.90;;;;;;5110963;28;20478;-82
2021/04/02 05:43:56;;;;;;;12.50;9.47;;;7.00;99.90;;;;;;5077678;28;20429;-82
2021/04/02 05:46:25;;;;;;;13.70;9.73;;;6.90;99.90;;;;;;5100695;28;20424;-82
2021/04/02 05:49:00;;;;;;;14.77;9.63;;;7.00;99.90;;;;;;5108745;28;20489;-82
2021/04/02 05:51:27;;;;;;;14.57;9.47;;;6.80;99.90;;;;;;5082607;28;20853;-82
2021/04/02 05:53:54;;;;;;;14.50;9.20;;;6.90;99.90;;;;;;5108380;28;20437;-83
2021/04/02 05:56:20;;;;;;;12.40;9.80;;;6.90;99.90;;;;;;5098885;28;20446;-82
2021/04/02 05:58:47;;;;;;;11.43;9.97;;;6.80;99.90;;;;;;5104642;28;21002;-81
2021/04/02 06:01:13;;;;;;;16.33;10.20;;;6.80;99.90;;;;;;5078844;28;20792;-83
2021/04/02 06:03:39;;;;;;;13.63;10.10;;;6.80;99.90;;;;;;5092282;28;20423;-82
2021/04/02 06:06:08;;;;;;;16.00;9.70;;;6.60;99.90;;;;;;5090680;28;20422;-82
2021/04/02 06:08:35;;;;;;;13.60;9.83;;;6.70;99.90;;;;;;5093916;28;20417;-82
2021/04/02 06:11:00;;;;;;;19.00;10.77;;;6.80;99.90;;;;;;5098275;28;20466;-82
2021/04/02 06:13:27;;;;;;;19.23;12.27;;;6.80;99.90;;;;;;5101413;28;20445;-82
2021/04/02 06:15:55;;;;;;;17.40;9.40;;;6.90;99.90;;;;;;5099439;28;20184;-83
2021/04/02 06:18:24;;;;;;;16.03;10.40;;;7.10;99.90;;;;;;5103308;27;20421;-84
2021/04/02 06:20:51;;;;;;;15.00;9.90;;;6.80;99.90;;;;;;5103572;27;20426;-83
2021/04/02 06:23:17;;;;;;;14.27;9.57;;;6.80;99.90;;;;;;5098920;28;20453;-82
2021/04/02 06:25:51;;;;;;;16.50;9.90;;;7.00;99.90;;;;;;5116544;28;20421;-81
2021/04/02 06:28:19;;;;;;;11.67;8.60;;;6.90;99.90;;;;;;5107576;28;20434;-82
2021/04/02 06:30:49;;;;;;;17.30;11.00;;;7.20;99.90;;;;;;5100345;28;20536;-80
2021/04/02 06:33:16;;;;;;;15.50;9.27;;;7.10;99.90;;;;;;5083152;28;20800;-82
2021/04/02 06:35:44;;;;;;;11.80;9.03;;;7.20;99.90;;;;;;5092003;28;20442;-82
2021/04/02 06:38:10;;;;;;;13.93;10.43;;;7.20;99.90;;;;;;5131173;27;20417;-82
2021/04/02 06:40:36;;;;;;;12.73;7.90;;;7.20;99.90;;;;;;5107488;28;20430;-82
2021/04/02 06:43:03;;;;;;;12.23;8.63;;;7.10;99.90;;;;;;5096259;28;20449;-82
2021/04/02 06:45:29;;;;;;;11.50;8.70;;;7.10;99.90;;;;;;5098008;28;20793;-82
2021/04/02 06:48:14;;;;;;;11.23;8.37;;;7.30;99.90;;;;;;5096922;28;20525;-82
2021/04/02 06:50:40;;;;;;;11.20;8.57;;;7.00;99.90;;;;;;5110273;27;20544;-82
2021/04/02 06:53:06;;;;;;;12.17;9.37;;;7.20;99.90;;;;;;5109613;28;20429;-82
2021/04/02 06:55:32;;;;;;;12.23;9.70;;;7.10;99.90;;;;;;5101641;28;20470;-81
2021/04/02 06:58:05;;;;;;;16.13;10.23;;;6.90;99.90;;;;;;5114937;28;20321;-81
2021/04/02 07:00:35;;;;;;;12.20;9.30;;;6.90;99.90;;;;;;5081513;28;20467;-81
2021/04/02 07:03:02;;;;;;;11.53;9.90;;;7.10;99.90;;;;;;5098542;28;20450;-82
2021/04/02 07:05:29;;;;;;;14.90;10.23;;;7.20;99.90;;;;;;5077135;28;20528;-82
2021/04/02 07:08:05;;;;;;;11.83;9.67;;;7.00;99.90;;;;;;5117400;27;20900;-81
2021/04/02 07:10:37;;;;;;;15.63;10.50;;;7.00;99.90;;;;;;5097764;28;20551;-82
2021/04/02 07:13:05;;;;;;;14.63;10.23;;;6.90;99.90;;;;;;5094824;28;20476;-82
2021/04/02 07:15:35;;;;;;;16.67;10.43;;;7.00;99.90;;;;;;5081122;28;20426;-81
2021/04/02 07:18:06;;;;;;;14.33;10.50;;;6.90;99.90;;;;;;5098307;28;20525;-82
2021/04/02 07:20:33;;;;;;;15.47;9.70;;;6.80;99.90;;;;;;5075485;28;20440;-82
2021/04/02 07:22:59;;;;;;;15.00;10.23;;;7.00;99.90;;;;;;5113422;28;20477;-82
2021/04/02 07:25:25;;;;;;;13.30;9.33;;;6.80;99.90;;;;;;5097317;28;20405;-82
2021/04/02 07:27:51;;;;;;;15.40;11.60;;;6.90;99.90;;;;;;5113103;28;20460;-81
2021/04/02 07:30:19;;;;;;;17.10;9.60;;;6.80;99.90;;;;;;5074956;28;20502;-81
2021/04/02 07:32:46;;;;;;;15.00;9.90;;;6.90;99.90;;;;;;5110496;28;20441;-81
2021/04/02 07:35:20;;;;;;;18.03;10.00;;;6.80;99.90;;;;;;5106441;28;20411;-81
2021/04/02 07:37:55;;;;;;;14.43;9.83;;;7.00;99.90;;;;;;5117857;27;20484;-81
2021/04/02 07:40:30;;;;;;;16.97;9.60;;;7.00;99.90;;;;;;5095504;28;20424;-81
2021/04/02 07:42:59;;;;;;;12.83;9.27;;;6.70;99.90;;;;;;5094804;28;20481;-81
2021/04/02 07:45:30;;;;;;;11.63;8.37;;;7.00;99.90;;;;;;5096099;28;20429;-81
2021/04/02 07:48:13;;;;;;;10.47;7.67;;;7.00;99.90;;;;;;5096492;28;20421;-81
2021/04/02 07:50:45;;;;;;;14.07;8.30;;;7.00;99.90;;;;;;5110678;28;20460;-81
2021/04/02 07:53:31;;;;;;;11.60;7.17;;;6.90;99.90;;;;;;5112478;28;20434;-81
2021/04/02 07:56:05;;;;;;;16.40;8.33;;;6.90;99.90;;;;;;5112052;28;20554;-82
2021/04/02 07:58:32;;;;;;;10.80;8.50;;;7.00;99.90;;;;;;5094074;28;20428;-82
2021/04/02 08:01:00;;;;;;;9.97;7.37;;;6.90;99.90;;;;;;5094448;28;20467;-81
2021/04/02 08:03:29;;;;;;;11.80;7.67;;;7.10;99.90;;;;;;5078595;28;20452;-82
2021/04/02 08:05:57;;;;;;;12.30;7.30;;;7.00;99.90;;;;;;5085454;28;20437;-80
2021/04/02 08:08:25;;;;;;;14.80;8.43;;;7.20;99.90;;;;;;5110161;28;20498;-80
2021/04/02 08:11:28;;;;;;;10.17;7.77;;;7.10;99.90;;;;;;5112131;28;20460;-80
2021/04/02 08:13:57;;;;;;;12.07;7.13;;;7.10;99.90;;;;;;5093487;28;20425;-80
2021/04/02 08:16:31;;;;;;;13.73;7.83;;;7.00;99.90;;;;;;5094376;28;20426;-79
2021/04/02 08:19:20;;;;;;;14.53;7.33;;;7.20;99.90;;;;;;5111869;28;20413;-79
2021/04/02 08:22:00;;;;;;;13.83;7.40;;;7.20;99.90;;;;;;5110484;27;20502;-80
2021/04/02 08:24:31;;;;;;;13.20;8.80;;;7.30;99.90;;;;;;5110383;28;20440;-81
2021/04/02 08:26:57;;;;;;;9.70;7.50;;;7.20;99.90;;;;;;5111852;28;20771;-80
2021/04/02 08:29:25;;;;;;;9.60;7.60;;;7.10;99.90;;;;;;5111406;28;20438;-80
2021/04/02 08:31:57;;;;;;;12.43;7.60;;;7.40;99.90;;;;;;5110083;28;20457;-80
2021/04/02 08:34:25;;;;;;;11.73;7.10;;;7.40;99.90;;;;;;5087959;28;20421;-80
2021/04/02 08:36:54;;;;;;;9.83;6.70;;;7.40;99.90;;;;;;5088871;28;20503;-81
2021/04/02 08:39:24;;;;;;;8.57;6.10;;;7.40;99.90;;;;;;5112904;28;20426;-80
2021/04/02 08:41:53;;;;;;;7.60;5.83;;;7.60;99.90;;;;;;5110765;28;20942;-80
2021/04/02 08:44:26;;;;;;;8.37;6.40;;;7.40;99.90;;;;;;5110621;28;20413;-80
2021/04/02 08:46:52;;;;;;;12.90;6.63;;;7.20;99.90;;;;;;5102334;28;20429;-81
2021/04/02 08:49:18;;;;;;;9.97;6.10;;;7.20;99.90;;;;;;5111001;28;20425;-80
2021/04/02 08:51:48;;;;;;;8.77;6.50;;;7.40;99.90;;;;;;5097652;28;20223;-81
2021/04/02 08:54:22;;;;;;;11.57;6.63;;;7.50;99.90;;;;;;5095436;28;20182;-82
2021/04/02 08:56:48;;;;;;;10.07;7.43;;;7.50;99.90;;;;;;5112123;28;20472;-80
2021/04/02 08:59:16;;;;;;;12.20;6.43;;;7.50;99.90;;;;;;5081708;28;20480;-81
2021/04/02 09:01:46;;;;;;;11.07;6.30;;;7.70;99.90;;;;;;5108220;28;20449;-81
2021/04/02 09:04:13;;;;;;;8.93;6.00;;;7.70;99.90;;;;;;5113183;28;20464;-83
2021/04/02 09:06:40;;;;;;;10.40;7.03;;;7.70;99.90;;;;;;5078390;28;20429;-81
2021/04/02 09:09:14;;;;;;;9.60;7.30;;;7.60;99.90;;;;;;5116244;27;20429;-82
2021/04/02 09:11:40;;;;;;;11.90;7.57;;;7.70;99.90;;;;;;5077726;28;20530;-82
2021/04/02 09:14:09;;;;;;;12.27;7.23;;;7.70;99.90;;;;;;5112511;28;20477;-80
2021/04/02 09:16:37;;;;;;;10.00;6.37;;;7.70;99.90;;;;;;5094858;28;20597;-80
2021/04/02 09:19:04;;;;;;;11.47;7.57;;;7.80;99.90;;;;;;5113158;28;20426;-81
2021/04/02 09:21:30;;;;;;;9.60;7.17;;;7.60;99.90;;;;;;5111395;28;20834;-82
2021/04/02 09:23:56;;;;;;;10.80;6.93;;;7.80;99.90;;;;;;5114667;28;20429;-82
2021/04/02 09:26:22;;;;;;;9.77;7.70;;;7.80;99.90;;;;;;5095152;28;20457;-82
2021/04/02 09:28:49;;;;;;;8.27;6.30;;;7.90;99.90;;;;;;5076233;28;20444;-82
2021/04/02 09:31:19;;;;;;;9.07;6.77;;;7.70;99.90;;;;;;5090216;28;20492;-82
2021/04/02 09:33:48;;;;;;;10.67;6.57;;;7.90;99.90;;;;;;5107554;28;20418;-85
2021/04/02 09:36:14;;;;;;;8.57;6.77;;;7.80;99.90;;;;;;5077016;28;21091;-84
2021/04/02 09:38:41;;;;;;;15.23;7.00;;;7.90;99.90;;;;;;5108624;28;20489;-83
2021/04/02 09:41:25;;;;;;;8.37;5.77;;;7.90;99.90;;;;;;5061451;28;20509;-83
2021/04/02 09:43:52;;;;;;;7.70;6.10;;;7.90;99.90;;;;;;5079011;28;20513;-83
2021/04/02 09:46:34;;;;;;;6.80;6.10;;;7.80;99.90;;;;;;5109904;28;20493;-85
2021/04/02 09:49:16;;;;;;;10.03;6.60;;;8.00;99.90;;;;;;5085838;28;20456;-82
2021/04/02 09:51:53;;;;;;;9.43;5.90;;;7.90;99.90;;;;;;5122437;27;20781;-81
2021/04/02 09:54:20;;;;;;;10.93;7.43;;;7.80;99.90;;;;;;5113709;28;20421;-81
2021/04/02 09:56:48;;;;;;;9.03;6.90;;;8.10;99.90;;;;;;5116778;28;21073;-81
2021/04/02 09:59:14;;;;;;;8.90;7.80;;;8.10;99.90;;;;;;5096502;28;20443;-81
2021/04/02 10:01:42;;;;;;;9.97;7.60;;;8.20;99.90;;;;;;5098779;28;20521;-82
2021/04/02 10:04:09;;;;;;;8.40;6.27;;;8.20;99.90;;;;;;5100475;28;20468;-81
2021/04/02 10:06:35;;;;;;;10.70;8.00;;;8.30;99.90;;;;;;5100893;28;20797;-83
2021/04/02 10:09:04;;;;;;;10.47;7.63;;;8.20;99.90;;;;;;5117302;27;20418;-81
2021/04/02 10:11:30;;;;;;;14.13;7.27;;;8.50;99.90;;;;;;5112901;28;20461;-81
2021/04/02 10:13:56;;;;;;;8.33;7.20;;;8.40;99.90;;;;;;5114042;28;20417;-81
2021/04/02 10:16:22;;;;;;;7.03;6.33;;;8.50;99.90;;;;;;5115416;28;20454;-81
2021/04/02 10:18:50;;;;;;;8.90;6.90;;;8.50;99.90;;;;;;5112594;28;20422;-82
2021/04/02 10:21:17;;;;;;;7.60;6.80;;;8.60;99.90;;;;;;5111982;28;20433;-81
2021/04/02 10:23:43;;;;;;;7.97;6.43;;;8.60;99.90;;;;;;5108438;28;20569;-81
2021/04/02 10:26:10;;;;;;;11.17;6.23;;;8.60;99.90;;;;;;5077472;28;20926;-81
2021/04/02 10:28:36;;;;;;;9.13;6.20;;;8.60;99.90;;;;;;5092802;28;20216;-82
2021/04/02 10:31:02;;;;;;;8.80;7.00;;;8.80;99.90;;;;;;5113748;28;20449;-81
2021/04/02 10:33:27;;;;;;;12.50;6.40;;;8.80;99.90;;;;;;5114858;28;20430;-81
2021/04/02 10:35:53;;;;;;;11.23;7.10;;;8.80;99.90;;;;;;5114557;28;20196;-81
2021/04/02 10:38:19;;;;;;;9.20;6.47;;;8.90;99.90;;;;;;5083252;28;20203;-83
2021/04/02 10:40:45;;;;;;;10.23;6.47;;;9.00;99.90;;;;;;5104304;28;20215;-82
2021/04/02 10:43:10;;;;;;;10.90;5.73;;;9.00;99.90;;;;;;5119068;28;20204;-81
2021/04/02 10:45:36;;;;;;;8.43;6.30;;;9.00;99.90;;;;;;5093598;28;20426;-81
2021/04/02 10:48:04;;;;;;;14.73;7.67;;;9.00;99.90;;;;;;5104168;28;20668;-81
2021/04/02 10:50:30;;;;;;;15.13;6.80;;;8.90;99.90;;;;;;5096159;28;20513;-83
2021/04/02 10:52:57;;;;;;;8.17;6.40;;;8.90;99.90;;;;;;5114103;28;20528;-82
2021/04/02 10:55:23;;;;;;;8.73;5.87;;;8.80;99.90;;;;;;5080860;28;21044;-83
2021/04/02 10:57:48;;;;;;;9.20;6.20;;;8.80;99.90;;;;;;5098530;28;20473;-82
2021/04/02 11:00:16;;;;;;;9.27;6.07;;;9.00;99.90;;;;;;5117397;28;20409;-84
2021/04/02 11:02:43;;;;;;;7.60;6.27;;;8.80;99.90;;;;;;5095317;28;20213;-84
2021/04/02 11:05:09;;;;;;;9.60;6.33;;;8.90;99.90;;;;;;5066314;28;20417;-83
2021/04/02 11:07:36;;;;;;;8.13;5.53;;;9.00;99.90;;;;;;5084423;28;20462;-82
2021/04/02 11:10:04;;;;;;;9.43;6.47;;;9.00;99.90;;;;;;5105579;28;20433;-82
2021/04/02 11:12:30;;;;;;;12.30;7.03;;;9.00;99.90;;;;;;5082987;28;20487;-82
2021/04/02 11:14:56;;;;;;;7.47;6.40;;;9.10;99.90;;;;;;5096658;28;20416;-82
2021/04/02 11:17:23;;;;;;;9.70;6.67;;;9.20;99.90;;;;;;5114464;28;21780;-82
2021/04/02 11:19:50;;;;;;;10.60;7.20;;;9.00;99.90;;;;;;5101025;28;20177;-83
2021/04/02 11:22:15;;;;;;;7.90;6.77;;;9.00;99.90;;;;;;5108839;28;20437;-84
2021/04/02 11:24:42;;;;;;;10.97;7.83;;;9.10;99.90;;;;;;5077000;28;20417;-84
2021/04/02 11:27:08;;;;;;;10.13;7.77;;;9.10;99.90;;;;;;5111907;28;20188;-83
2021/04/02 11:29:34;;;;;;;8.83;7.33;;;9.00;99.90;;;;;;5114547;28;20432;-83
2021/04/02 11:32:00;;;;;;;9.23;8.30;;;9.20;99.90;;;;;;5095877;28;20457;-85
2021/04/02 11:34:26;;;;;;;9.73;7.80;;;9.10;99.90;;;;;;5095760;28;20172;-83
2021/04/02 11:36:52;;;;;;;12.33;9.03;;;9.00;99.90;;;;;;5095908;28;20498;-83
2021/04/02 11:39:18;;;;;;;13.03;10.80;;;9.30;99.90;;;;;;5082519;28;20443;-83
2021/04/02 11:41:44;;;;;;;16.03;12.30;;;9.00;99.90;;;;;;5092923;28;20196;-82
2021/04/02 11:44:10;;;;;;;13.50;10.67;;;8.80;99.90;;;;;;5089374;28;20184;-81
2021/04/02 11:46:36;;;;;;;11.97;9.77;;;9.30;99.90;;;;;;5103587;28;20949;-84
2021/04/02 11:49:03;;;;;;;14.47;9.67;;;9.20;99.90;;;;;;5078974;28;20184;-85
2021/04/02 11:51:30;;;;;;;12.83;9.83;;;9.20;99.90;;;;;;5059083;28;20226;-86
2021/04/02 11:53:55;;;;;;;11.70;9.30;;;9.10;99.90;;;;;;5092641;28;20524;-84
2021/04/02 11:56:21;;;;;;;11.97;9.43;;;8.80;99.90;;;;;;5077538;28;20848;-84
2021/04/02 11:58:46;;;;;;;14.40;9.83;;;9.20;99.90;;;;;;5075216;28;20275;-84
2021/04/02 12:01:12;;;;;;;12.73;10.53;;;9.30;99.90;;;;;;5103923;28;20244;-86
2021/04/02 12:03:38;;;;;;;17.17;12.60;;;9.20;99.90;;;;;;5078598;28;20236;-83
2021/04/02 12:06:03;;;;;;;20.60;16.10;;;9.10;99.90;;;;;;5115114;28;20180;-83
2021/04/02 12:08:29;;;;;;;20.73;13.17;;;9.00;99.90;;;;;;5075206;28;20227;-85
2021/04/02 12:10:55;;;;;;;14.43;9.70;;;9.10;99.90;;;;;;5124128;27;20213;-84
2021/04/02 12:13:21;;;;;;;11.40;8.53;;;8.90;99.90;;;;;;5115031;27;20494;-84
2021/04/02 12:15:46;;;;;;;9.93;7.23;;;9.30;99.90;;;;;;5107133;28;20187;-84
2021/04/02 12:18:12;;;;;;;10.40;8.03;;;9.60;99.90;;;;;;5094818;28;20183;-82
2021/04/02 12:20:38;;;;;;;10.47;7.53;;;9.70;99.90;;;;;;5109940;28;20176;-81
2021/04/02 12:23:04;;;;;;;6.57;5.97;;;9.90;99.90;;;;;;5108787;28;20212;-81
2021/04/02 12:25:29;;;;;;;8.90;6.73;;;9.80;99.90;;;;;;5107205;28;20644;-85
2021/04/02 12:27:55;;;;;;;9.97;7.20;;;10.50;99.90;;;;;;5110676;28;20184;-83
2021/04/02 12:30:21;;;;;;;9.90;7.20;;;10.50;99.80;;;;;;5111072;28;20445;-82
2021/04/02 12:32:47;;;;;;;8.20;7.00;;;10.50;99.90;;;;;;5111918;28;20265;-82
2021/04/02 12:35:13;;;;;;;8.10;6.10;;;10.50;99.70;;;;;;5110218;28;20424;-83
2021/04/02 12:37:40;;;;;;;7.00;6.30;;;10.70;99.70;;;;;;5109647;28;20180;-82
2021/04/02 12:40:10;;;;;;;7.70;6.17;;;10.50;99.00;;;;;;5108558;28;20501;-83
2021/04/02 12:42:37;;;;;;;8.80;6.30;;;10.30;98.80;;;;;;5071527;28;20537;-83
2021/04/02 12:45:04;;;;;;;9.30;7.20;;;10.10;99.00;;;;;;5103047;28;20504;-82
2021/04/02 12:47:30;;;;;;;8.57;7.13;;;10.00;99.50;;;;;;5110853;28;20527;-83
2021/04/02 12:49:55;;;;;;;11.87;7.50;;;9.90;99.90;;;;;;5110753;28;21169;-82
2021/04/02 12:52:21;;;;;;;10.93;7.10;;;9.90;99.70;;;;;;5094120;28;20208;-84
2021/04/02 12:54:46;;;;;;;14.33;6.60;;;10.00;99.70;;;;;;5101336;28;20897;-81
2021/04/02 12:57:12;;;;;;;8.13;5.80;;;9.60;99.90;;;;;;5108399;28;20605;-80